Headquarters, Valles Caldera, New Mexico Weather observations

Data are for 10 minute period ending at time listed.
 Day   Time   Solar   Ave.   Ave.  Ave.  Vector  Max.   Baro.   Total    
  of    of     Rad.   Air    Rel.  Wind   Wind   Wind  Press.  Precip.   
Year   Day            Temp.  Hum.  Speed  Dir.   Gust                    
2015   (MST)  Kw/m2    F      %     mph   deg.    mph    mb.     in.     
-------------------------------------------------------------------------
  26    5:20   0.00   17.7    84    3.6   292     5.4   746.0    0.00 
  26    5:30   0.00   19.3    85    2.9   292     4.8   746.0    0.00 
  26    5:40   0.00   19.1    83    1.4   292     2.4   746.1    0.00 
  26    5:50   0.00   19.7    85    0.1   292     1.2   746.2    0.00 
  26    6:00   0.00   20.3    84    2.0   292     3.6   746.2    0.00 
  26    6:10   0.00   20.6    82    1.9   292     3.0   746.2    0.00 
  26    6:20   0.00   20.8    82    2.1   292     3.6   746.3    0.00 
  26    6:30   0.00   21.4    81    2.8   292     4.2   746.3    0.00 
  26    6:40   0.00   21.3    79    1.9   292     4.2   746.3    0.00 
  26    6:50   0.00   18.4    81    0.9   292     2.4   746.4    0.00 
  26    7:00   0.00   17.4    85    1.9   292     3.0   746.4    0.00 
  26    7:10   0.00   19.0    88    2.4   292     3.6   746.4    0.00 
  26    7:20   0.01   20.2    85    1.7   292     4.2   746.5    0.00 
  26    7:30   0.01   20.6    83    0.7   292     2.4   746.5    0.00 
  26    7:40   0.05   19.7    81    0.5   292     1.8   746.5    0.00 
  26    7:50   0.09   24.4    77    0.2   292     1.2   746.5    0.00 
  26    8:00   0.12   27.1    65    1.9   292     3.0   746.5    0.00 
  26    8:10   0.14   25.4    70    1.0   292     3.0   746.5    0.00 
  26    8:20   0.16   27.5    69    2.4   292     3.6   746.5    0.00 
  26    8:30   0.18   29.2    70    2.3   292     3.6   746.4    0.00 
  26    8:40   0.20   33.8    65    2.3   292     3.0   746.4    0.00 
  26    8:50   0.23   35.8    61    3.2   292     4.2   746.4    0.00 
  26    9:00   0.26   35.8    62    2.4   292     3.6   746.3    0.00 
  26    9:10   0.28   31.7    68    2.4   292     4.2   746.2    0.00 
  26    9:20   0.31   32.5    68    1.7   292     3.0   746.2    0.00 
  26    9:30   0.33   34.0    66    1.9   291     3.0   746.2    0.00 
  26    9:40   0.35   36.2    62    1.4   291     2.4   746.3    0.00 
  26    9:50   0.38   38.2    59    2.0   291     3.6   746.3    0.00 
  26   10:00   0.40   40.6    53    1.5   291     4.2   746.4    0.00 
  26   10:10   0.42   42.1    56    2.0   291     6.0   746.5    0.00 
  26   10:20   0.44   43.6    55    2.0   291     4.2   746.5    0.00 
  26   10:30   0.46   46.6    52    2.4   291     4.8   746.5    0.00 
  26   10:40   0.47   45.8    52    2.7   291     4.8   746.5    0.00 
  26   10:50   0.49   45.3    53    2.4   290     3.6   746.7    0.00 
  26   11:00   0.51   47.5    50    2.1   290     4.2   746.6    0.00 
  26   11:10   0.52   50.0    48    2.1   290     4.2   746.5    0.00 
  26   11:20   0.53   51.7    39    2.5   290     4.2   746.4    0.00 
  26   11:30   0.54   52.8    37    3.1   290     4.2   746.4    0.00 
  26   11:40   0.55   52.9    40    2.6   290     4.2   746.3    0.00 
  26   11:50   0.54   52.7    41    3.2   290     4.8   746.2    0.00 
  26   12:00   0.56   53.5    37    3.1   290     4.2   746.0    0.00 
  26   12:10   0.56   54.1    29    4.6   290     6.0   746.0    0.00 
  26   12:20   0.56   54.7    26    5.3   289     9.6   745.9    0.00 
  26   12:30   0.56   54.6    25    5.0   289     8.4   745.7    0.00 
  26   12:40   0.56   54.8    26    5.6   289     9.0   745.6    0.00 
  26   12:50   0.55   55.1    26    5.7   289     8.4   745.5    0.00 
  26   13:00   0.54   55.0    26    5.9   288     9.0   745.4    0.00 
  26   13:10   0.54   55.0    25    3.8   288     7.2   745.4    0.00 
  26   13:20   0.54   55.3    25    3.4   288     6.6   745.4    0.00 
  26   13:30   0.52   55.3    26    5.1   289     8.4   745.3    0.00 
  26   13:40   0.51   54.7    27    5.7   289     8.4   745.3    0.00 
  26   13:50   0.51   54.8    26    5.6   289     8.4   745.2    0.00 
  26   14:00   0.49   54.6    26    5.6   289     8.4   745.3    0.00 
  26   14:10   0.48   53.7    27    6.8   289     9.6   745.3    0.00 
  26   14:20   0.46   53.3    28    6.3   289     9.6   745.3    0.00 
  26   14:30   0.44   53.1    28    6.9   288    11.3   745.4    0.00 
  26   14:40   0.41   52.7    28    7.0   288    10.2   745.5    0.00 
  26   14:50   0.39   52.6    29    6.5   288     9.6   745.5    0.00 
  26   15:00   0.34   52.1    28    4.8   288     9.0   745.7    0.00 
  26   15:10   0.31   51.7    29    5.1   288     9.0   745.7    0.00 
  26   15:20   0.26   51.4    29    3.5   289     5.4   745.8    0.00 
  26   15:30   0.21   50.5    31    4.0   288     7.8   745.8    0.00 
  26   15:40   0.18   49.6    32    4.1   289     9.0   745.9    0.00 
  26   15:50   0.10   48.3    35    4.9   290     7.8   746.0    0.00 
  26   16:00   0.08   47.8    35    2.4   289     5.4   745.9    0.00 
  26   16:10   0.07   47.1    37    2.1   289     4.8   745.9    0.00 
  26   16:20   0.07   45.7    40    3.1   290     6.0   745.9    0.00 
  26   16:30   0.09   44.1    46    3.1   289     4.8   745.9    0.00 
  26   16:40   0.07   43.1    49    2.6   289     4.2   746.0    0.00 
  26   16:50   0.05   41.4    52    3.4   289     4.8   746.0    0.00 
  26   17:00   0.04   40.5    54    3.7   289     4.8   746.0    0.00 
  26   17:10   0.03   39.1    58    2.9   289     4.2   746.0    0.00 
  26   17:20   0.01   37.9    62    4.0   290     4.8   746.0    0.00 
  26   17:30   0.01   37.0    63    4.1   290     5.4   746.0    0.00 
  26   17:40   0.00   35.8    65    4.5   290     5.4   746.0    0.00 
  26   17:50   0.00   34.5    66    4.2   290     5.4   746.0    0.00 
  26   18:00   0.00   34.0    66    4.0   290     5.4   746.1    0.00 
  26   18:10   0.00   33.8    66    3.8   290     4.8   746.2    0.00 
  26   18:20   0.00   33.2    68    3.4   290     4.8   746.2    0.00 
  26   18:30   0.00   32.8    68    3.6   290     4.8   746.3    0.00 
  26   18:40   0.00   33.2    66    3.9   290     4.8   746.4    0.00 
  26   18:50   0.00   33.0    68    3.6   290     4.2   746.4    0.00 
  26   19:00   0.00   33.3    67    3.1   290     4.2   746.4    0.00 
  26   19:10   0.00   33.0    68    3.4   290     4.8   746.4    0.00 
  26   19:20   0.00   32.6    69    3.1   290     4.2   746.5    0.00 
  26   19:30   0.00   32.3    69    2.6   290     3.6   746.5    0.00 
  26   19:40   0.00   32.0    70    2.6   290     4.2   746.5    0.00 
  26   19:50   0.00   31.6    71    2.8   290     4.2   746.6    0.00 
  26   20:00   0.00   31.3    71    3.1   290     4.8   746.6    0.00 
  26   20:10   0.00   30.6    73    3.1   290     4.2   746.6    0.00 
  26   20:20   0.00   30.6    73    3.6   290     4.8   746.6    0.00 
  26   20:30   0.00   30.2    75    2.7   290     3.6   746.6    0.00 
  26   20:40   0.00   30.7    75    2.6   290     3.6   746.6    0.00 
  26   20:50   0.00   30.6    73    2.0   290     3.0   746.5    0.00 
  26   21:00   0.00   29.4    76    2.2   290     3.6   746.6    0.00 
  26   21:10   0.00   28.9    78    3.1   290     4.2   746.7    0.00 
  26   21:20   0.00   29.1    78    2.3   290     3.6   746.7    0.00 
  26   21:30   0.00   28.9    78    2.3   290     3.0   746.6    0.00 
  26   21:40   0.00   28.8    78    2.1   291     3.0   746.6    0.00 
  26   21:50   0.00   28.8    78    2.4   291     3.0   746.6    0.00 
  26   22:00   0.00   29.0    77    1.9   291     3.0   746.6    0.00 
  26   22:10   0.00   29.2    76    1.2   291     1.8   746.7    0.00 
  26   22:20   0.00   28.7    76    2.1   291     3.0   746.7    0.00 
  26   22:30   0.00   28.2    78    2.3   291     3.0   746.7    0.00 
  26   22:40   0.00   28.3    78    1.8   291     3.0   746.7    0.00 
  26   22:50   0.00   28.2    78    1.6   291     2.4   746.8    0.00 
  26   23:00   0.00   28.3    78    0.7   291     2.4   746.8    0.00 
  26   23:10   0.00   27.7    78    1.9   291     3.0   746.8    0.00 
  26   23:20   0.00   27.1    80    2.5   291     3.0   746.8    0.00 
  26   23:30   0.00   26.8    81    2.6   291     3.6   746.8    0.00 
  26   23:40   0.00   26.7    81    2.6   291     3.6   746.7    0.00 
  26   23:50   0.00   26.5    81    2.2   291     3.0   746.7    0.00 
  27    0:00   0.00   27.0    81    1.8   291     2.4   746.7    0.00 
  27    0:10   0.00   27.2    80    1.9   291     2.4   746.7    0.00 
  27    0:20   0.00   27.3    79    1.7   291     3.0   746.7    0.00 
  27    0:30   0.00   27.2    79    0.8   291     2.4   746.7    0.00 
  27    0:40   0.00   25.3    80    1.0   291     2.4   746.7    0.00 
  27    0:50   0.00   24.6    84    2.0   291     3.6   746.8    0.00 
  27    1:00   0.00   25.2    84    2.2   291     3.0   746.7    0.00 
  27    1:10   0.00   26.0    83    1.1   291     2.4   746.7    0.00 
  27    1:20   0.00   25.6    81    2.0   291     3.0   746.6    0.00 
  27    1:30   0.00   24.2    84    1.1   291     2.4   746.6    0.00 
  27    1:40   0.00   24.4    86    2.0   291     3.0   746.6    0.00 
  27    1:50   0.00   25.1    84    1.9   291     2.4   746.6    0.00 
  27    2:00   0.00   24.9    84    1.4   291     2.4   746.6    0.00 
  27    2:10   0.00   24.7    84    1.9   291     3.0   746.6    0.00 
  27    2:20   0.00   24.9    84    2.5   291     3.6   746.5    0.00 
  27    2:30   0.00   25.1    84    2.3   291     3.0   746.5    0.00 
  27    2:40   0.00   25.2    83    0.8   291     2.4   746.5    0.00 
  27    2:50   0.00   24.8    82    2.9   291     6.0   746.4    0.00 
  27    3:00   0.00   23.3    83    1.5   291     3.0   746.4    0.00 
  27    3:10   0.00   23.9    85    0.1   291     1.2   746.3    0.00 
  27    3:20   0.00   24.2    85    0.4   291     1.8   746.2    0.00 
  27    3:30   0.00   25.3    83    0.2   291     1.8   746.2    0.00 
  27    3:40   0.00   25.2    82    0.4   291     1.8   746.2    0.00 
  27    3:50   0.00   23.9    83    0.3   291     1.8   746.2    0.00 
  27    4:00   0.00   22.6    85    0.3   291     1.8   746.1    0.00 
  27    4:10   0.00   21.7    88    1.0   291     1.8   746.1    0.00 
  27    4:20   0.00   22.5    90    2.2   291     3.0   746.1    0.00 
  27    4:30   0.00   23.1    87    2.0   291     3.0   746.0    0.00 
  27    4:40   0.00   23.0    87    1.8   291     2.4   745.9    0.00 
  27    4:50   0.00   23.6    86    2.4   291     3.0   745.8    0.00 
  27    5:00   0.00   24.0    83    1.4   291     3.0   745.7    0.00 
  27    5:10   0.00   22.6    85    0.8   292     1.8   745.7    0.00 

Return to Headquarters, Valles Caldera graphs page.


Western Regional Climate Center,wrcc@dri.edu